Watersmeet, Michigan
Current Conditions -  °F | °C
As of 2:15 PM on Thursday 23 Oct 2014 (Local Time) from KLNL Reporting Station
Light Rain Light Rain  
Wind Chill: 43°   Ceiling: 500
Heat Index: 46°   Visibility: 7mi
Dew Point: 44°   Wind: 5mph
Humidity: 96%   Direction: 210°SSW
Pressure: 30.01"   Gusts: NA
Location:  46.27°N, 89.18°W
Report Text: KLNL 231915Z AUTO 21004KT 7SM -RA OVC005 08/07 A3001 RMK AO2 T00750069
Loading
Personal Weather Stations






























Interactive Weather Map
Tropical Storm Tracking
New forecast layout! Learn more

10-Day Weather Forecast

Advertisements
Track Severe Weather on mobile